createdAt,value
2019-05-09T00:02:29.704Z,98591.38
2019-05-09T00:05:33.673Z,98578.95
2019-05-09T00:08:37.268Z,98577.55
2019-05-09T00:11:40.876Z,98573.81
2019-05-09T00:14:44.552Z,98573.52
2019-05-09T00:17:48.195Z,98589.87
2019-05-09T00:21:04.125Z,98580.80
2019-05-09T00:24:07.884Z,98585.20
2019-05-09T00:27:11.485Z,98589.38
2019-05-09T00:30:16.832Z,98592.70
2019-05-09T00:33:23.584Z,98591.53
2019-05-09T00:36:27.187Z,98596.84
2019-05-09T00:39:30.791Z,98599.95
2019-05-09T00:42:35.261Z,98599.82
2019-05-09T00:45:46.324Z,98591.34
2019-05-09T00:48:53.335Z,98595.43
2019-05-09T00:51:57.054Z,98592.78
2019-05-09T00:55:00.601Z,98593.58
2019-05-09T00:58:04.380Z,98599.46
2019-05-09T01:01:08.476Z,98598.54
2019-05-09T01:04:13.647Z,98597.01
2019-05-09T01:07:17.358Z,98592.64
2019-05-09T01:10:20.927Z,98603.83
2019-05-09T01:13:24.467Z,98599.95
2019-05-09T01:16:28.110Z,98604.86
2019-05-09T01:19:33.722Z,98610.02
2019-05-09T01:22:36.945Z,98610.02
2019-05-09T01:25:40.530Z,98610.12
2019-05-09T01:28:44.351Z,98605.66
2019-05-09T01:31:48.010Z,98609.52
2019-05-09T01:34:53.074Z,98614.70
2019-05-09T01:37:56.689Z,98618.30
2019-05-09T01:41:00.312Z,98621.68
2019-05-09T01:44:04.161Z,98616.17
2019-05-09T01:47:07.905Z,98615.84
2019-05-09T01:50:13.874Z,98624.53
2019-05-09T01:53:18.480Z,98621.81
2019-05-09T01:56:23.496Z,98607.34
2019-05-09T01:59:27.247Z,98612.81
2019-05-09T02:02:30.818Z,98621.94
2019-05-09T02:05:34.388Z,98615.39
2019-05-09T02:08:37.936Z,98623.72
2019-05-09T02:11:43.281Z,98623.23
2019-05-09T02:14:48.462Z,98629.41
2019-05-09T02:18:00.625Z,98631.33
2019-05-09T02:20:58.965Z,98625.45
2019-05-09T02:24:03.306Z,98627.88
2019-05-09T02:27:07.017Z,98624.66
2019-05-09T02:30:14.786Z,98614.42
2019-05-09T02:33:16.983Z,98612.58
2019-05-09T02:36:20.566Z,98616.97
2019-05-09T02:39:24.120Z,98640.47
2019-05-09T02:42:28.200Z,98631.14
2019-05-09T02:45:33.529Z,98630.98
2019-05-09T02:48:38.629Z,98628.05
2019-05-09T02:51:42.354Z,98626.50
2019-05-09T02:54:45.875Z,98631.73
2019-05-09T02:57:51.066Z,98634.46
2019-05-09T03:00:59.816Z,98633.80
2019-05-09T03:04:03.619Z,98632.14
2019-05-09T03:07:09.674Z,98632.05
2019-05-09T03:10:12.518Z,98628.11
2019-05-09T03:13:19.050Z,98633.07
2019-05-09T03:16:21.559Z,98640.52
2019-05-09T03:19:25.141Z,98637.73
2019-05-09T03:22:28.968Z,98623.37
2019-05-09T03:25:33.042Z,98626.20
2019-05-09T03:28:41.013Z,98614.39
2019-05-09T03:31:45.071Z,98623.95
2019-05-09T03:34:48.605Z,98630.59
2019-05-09T03:38:08.132Z,98642.05
2019-05-09T03:41:12.846Z,98638.38
2019-05-09T03:44:17.912Z,98644.22
2019-05-09T03:47:23.266Z,98644.86
2019-05-09T03:50:27.959Z,98646.64
2019-05-09T03:53:31.706Z,98646.22
2019-05-09T03:56:48.886Z,98649.43
2019-05-09T03:59:52.426Z,98639.89
2019-05-09T04:02:58.045Z,98643.83
2019-05-09T04:06:03.018Z,98657.15
2019-05-09T04:09:08.084Z,98659.63
2019-05-09T04:12:11.665Z,98650.16
2019-05-09T04:15:18.846Z,98650.06
2019-05-09T04:18:20.919Z,98653.67
2019-05-09T04:21:24.482Z,98654.16
2019-05-09T04:24:29.335Z,98658.73
2019-05-09T04:27:34.078Z,98662.12
2019-05-09T04:30:37.649Z,98665.96
2019-05-09T04:33:41.205Z,98656.88
2019-05-09T04:36:44.952Z,98662.48
2019-05-09T04:39:48.623Z,98665.94
2019-05-09T04:42:52.201Z,98677.11
2019-05-09T04:45:57.877Z,98675.41
2019-05-09T04:52:17.902Z,98674.23
2019-05-09T04:55:22.758Z,98686.64
2019-05-09T04:58:27.424Z,98689.34
2019-05-09T05:01:39.054Z,98687.82
2019-05-09T05:04:42.802Z,98690.94
2019-05-09T05:07:48.060Z,98691.30
2019-05-09T05:10:51.888Z,98692.75
2019-05-09T05:13:55.394Z,98695.95
2019-05-09T05:17:07.533Z,98697.53
2019-05-09T05:20:08.373Z,98700.03
2019-05-09T05:23:18.147Z,98706.04
2019-05-09T05:26:21.763Z,98704.91
2019-05-09T05:29:25.290Z,98712.31
2019-05-09T05:32:30.576Z,98707.70
2019-05-09T05:35:37.538Z,98702.52
2019-05-09T05:38:41.234Z,98692.37
2019-05-09T05:41:44.811Z,98695.56
2019-05-09T05:44:48.336Z,98693.18
2019-05-09T05:47:57.646Z,98700.77
2019-05-09T05:51:01.358Z,98698.61
2019-05-09T05:54:04.989Z,98711.53
2019-05-09T05:57:08.654Z,98719.83
2019-05-09T06:00:13.561Z,98730.75
2019-05-09T06:03:17.826Z,98726.13
2019-05-09T06:06:21.454Z,98729.48
2019-05-09T06:09:25.055Z,98731.06
2019-05-09T06:12:28.617Z,98729.58
2019-05-09T06:15:32.170Z,98722.88
2019-05-09T06:18:38.280Z,98723.30
2019-05-09T06:21:42.845Z,98720.96
2019-05-09T06:24:47.852Z,98727.91
2019-05-09T06:27:51.495Z,98719.83
2019-05-09T06:30:55.130Z,98712.88
2019-05-09T06:33:58.769Z,98708.79
2019-05-09T06:37:03.318Z,98716.03
2019-05-09T06:40:08.098Z,98712.67
2019-05-09T06:43:18.843Z,98712.31
2019-05-09T06:46:24.026Z,98707.22
2019-05-09T06:49:31.972Z,98722.06
2019-05-09T06:52:34.465Z,98723.42
2019-05-09T06:55:38.621Z,98720.61
2019-05-09T06:58:43.054Z,98711.22
2019-05-09T07:01:50.852Z,98718.78
2019-05-09T07:04:58.577Z,98711.17
2019-05-09T07:08:03.878Z,98701.62
2019-05-09T07:11:07.665Z,98709.59
2019-05-09T07:14:33.301Z,98704.17
2019-05-09T07:17:38.579Z,98699.70
2019-05-09T07:20:41.618Z,98699.44
2019-05-09T07:23:45.196Z,98707.69
2019-05-09T07:26:48.803Z,98702.75
2019-05-09T07:29:52.609Z,98697.48
2019-05-09T07:33:00.401Z,98702.58
2019-05-09T07:36:03.941Z,98693.69
2019-05-09T07:39:08.739Z,98697.77
2019-05-09T07:42:12.674Z,98696.28
2019-05-09T07:45:17.821Z,98698.05
2019-05-09T07:48:21.653Z,98691.13
2019-05-09T07:51:27.424Z,98695.46
2019-05-09T07:54:30.585Z,98699.88
2019-05-09T07:57:34.198Z,98690.84
2019-05-09T08:00:38.645Z,98704.95
2019-05-09T08:03:42.220Z,98702.45
2019-05-09T08:06:48.435Z,98686.50
2019-05-09T08:09:51.229Z,98698.08
2019-05-09T08:12:54.839Z,98699.26
2019-05-09T08:15:59.414Z,98704.06
2019-05-09T08:19:03.100Z,98704.27
2019-05-09T08:22:07.951Z,98701.38
2019-05-09T08:25:11.862Z,98706.18
2019-05-09T08:28:17.975Z,98707.97
2019-05-09T08:31:20.915Z,98705.20
2019-05-09T08:34:24.541Z,98698.17
2019-05-09T08:37:28.449Z,98694.49
2019-05-09T08:40:32.161Z,98700.98
2019-05-09T08:43:37.686Z,98694.08
2019-05-09T08:46:41.318Z,98717.20
2019-05-09T08:49:49.591Z,98712.61
2019-05-09T08:52:53.418Z,98719.08
2019-05-09T08:55:58.052Z,98707.02
2019-05-09T08:59:02.472Z,98720.22
2019-05-09T09:02:18.480Z,98710.31
2019-05-09T09:05:13.996Z,98705.27
2019-05-09T09:08:18.373Z,98711.44
2019-05-09T09:11:22.214Z,98709.70
2019-05-09T09:17:58.174Z,98707.28
2019-05-09T09:21:01.804Z,98709.40
2019-05-09T09:24:05.494Z,98706.68
2019-05-09T09:27:09.246Z,98706.23
2019-05-09T09:30:21.709Z,98705.31
2019-05-09T09:33:21.657Z,98701.07
2019-05-09T09:36:25.260Z,98702.45
2019-05-09T09:39:31.243Z,98697.45
2019-05-09T09:42:34.688Z,98694.42
2019-05-09T09:45:38.302Z,98689.36
2019-05-09T09:48:41.987Z,98697.94
2019-05-09T09:51:48.399Z,98689.63
2019-05-09T09:54:51.225Z,98689.78
2019-05-09T09:57:54.830Z,98684.72
2019-05-09T10:01:03.780Z,98686.91
2019-05-09T10:04:19.712Z,98690.15
2019-05-09T10:07:14.587Z,98688.03
2019-05-09T10:10:33.207Z,98681.79
2019-05-09T10:13:37.472Z,98681.23
2019-05-09T10:16:47.802Z,98677.72
2019-05-09T10:19:52.561Z,98660.44
2019-05-09T10:23:03.281Z,98665.62
2019-05-09T10:26:01.548Z,98668.98
2019-05-09T10:29:05.155Z,98668.58
2019-05-09T10:32:13.774Z,98679.43
2019-05-09T10:35:22.730Z,98671.52
2019-05-09T10:38:27.959Z,98675.05
2019-05-09T10:41:31.924Z,98661.13
2019-05-09T10:44:42.882Z,98663.89
2019-05-09T10:47:48.283Z,98658.66
2019-05-09T10:50:54.002Z,98663.47
2019-05-09T10:53:58.742Z,98646.02
2019-05-09T10:57:02.772Z,98657.77
2019-05-09T11:00:08.772Z,98655.52
2019-05-09T11:03:12.666Z,98651.33
2019-05-09T11:06:18.316Z,98652.81
2019-05-09T11:09:21.710Z,98648.98
2019-05-09T11:12:27.474Z,98653.36
2019-05-09T11:15:30.694Z,98655.72
2019-05-09T11:18:34.525Z,98653.05
2019-05-09T11:21:39.333Z,98634.76
2019-05-09T11:24:48.168Z,98647.17
2019-05-09T11:27:59.194Z,98641.39
2019-05-09T11:30:53.884Z,98644.91
2019-05-09T11:33:57.997Z,98648.14
2019-05-09T11:37:01.916Z,98632.36
2019-05-09T11:40:06.776Z,98631.48
2019-05-09T11:43:10.541Z,98635.62
2019-05-09T11:46:14.170Z,98633.38
2019-05-09T11:49:18.141Z,98627.43
2019-05-09T11:52:21.876Z,98636.23
2019-05-09T11:55:34.721Z,98642.44
2019-05-09T11:58:30.899Z,98637.44
2019-05-09T12:01:34.492Z,98639.09
2019-05-09T12:04:38.115Z,98625.12
2019-05-09T12:07:41.725Z,98635.80
2019-05-09T12:10:45.407Z,98636.42
2019-05-09T12:13:49.057Z,98629.83
2019-05-09T12:16:52.677Z,98631.41
2019-05-09T12:20:09.540Z,98623.61
2019-05-09T12:23:01.682Z,98629.80
2019-05-09T12:26:08.013Z,98627.64
2019-05-09T12:29:10.629Z,98632.69
2019-05-09T12:32:14.342Z,98632.33
2019-05-09T12:35:19.121Z,98632.82
2019-05-09T12:38:22.979Z,98630.79
2019-05-09T12:41:30.989Z,98621.34
2019-05-09T12:44:32.136Z,98620.23
2019-05-09T12:47:35.790Z,98625.75
2019-05-09T12:50:41.083Z,98623.45
2019-05-09T12:57:10.114Z,98635.38
2019-05-09T13:00:38.233Z,98633.28
2019-05-09T13:03:44.638Z,98638.89
2019-05-09T13:06:58.771Z,98632.98
2019-05-09T13:10:02.788Z,98632.50
2019-05-09T13:13:09.452Z,98629.87
2019-05-09T13:16:44.372Z,98626.31
2019-05-09T13:19:39.019Z,98615.97
2019-05-09T13:22:42.643Z,98629.16
2019-05-09T13:25:50.223Z,98620.84
2019-05-09T13:28:51.635Z,98629.72
2019-05-09T13:31:57.587Z,98632.70
2019-05-09T13:35:01.075Z,98633.46
2019-05-09T13:38:04.678Z,98626.12
2019-05-09T13:41:08.601Z,98630.40
2019-05-09T13:44:13.974Z,98631.63
2019-05-09T13:47:18.040Z,98628.94
2019-05-09T13:50:21.764Z,98627.48
2019-05-09T13:53:25.359Z,98616.05
2019-05-09T13:56:28.989Z,98611.74
2019-05-09T13:59:32.594Z,98614.85
2019-05-09T14:02:38.444Z,98621.86
2019-05-09T14:05:41.602Z,98618.89
2019-05-09T14:08:48.515Z,98612.80
2019-05-09T14:11:50.642Z,98624.69
2019-05-09T14:18:08.346Z,98615.53
2019-05-09T14:21:12.158Z,98625.33
2019-05-09T14:24:19.029Z,98634.99
2019-05-09T14:27:21.142Z,98639.54
2019-05-09T14:30:27.371Z,98637.41
2019-05-09T14:33:32.542Z,98640.24
2019-05-09T14:36:39.118Z,98632.96
2019-05-09T14:39:54.865Z,98631.65
2019-05-09T14:42:49.288Z,98636.87
2019-05-09T14:45:52.256Z,98627.61
2019-05-09T14:48:58.196Z,98634.92
2019-05-09T14:52:01.243Z,98639.88
2019-05-09T14:55:08.274Z,98639.78
2019-05-09T14:58:12.003Z,98645.21
2019-05-09T15:01:15.706Z,98634.27
2019-05-09T15:04:19.317Z,98643.73
2019-05-09T15:07:22.916Z,98639.32
2019-05-09T15:10:26.557Z,98638.94
2019-05-09T15:13:34.726Z,98640.77
2019-05-09T15:16:39.220Z,98639.41
2019-05-09T15:19:56.558Z,98645.76
2019-05-09T15:22:47.876Z,98644.06
2019-05-09T15:25:51.821Z,98639.52
2019-05-09T15:28:58.217Z,98649.42
2019-05-09T15:32:06.242Z,98648.45
2019-05-09T15:35:10.577Z,98643.24
2019-05-09T15:38:17.927Z,98645.73
2019-05-09T15:41:21.250Z,98644.90
2019-05-09T15:44:24.935Z,98644.58
2019-05-09T15:47:30.204Z,98648.08
2019-05-09T15:50:33.804Z,98645.14
2019-05-09T15:53:38.083Z,98631.41
2019-05-09T15:56:44.118Z,98635.11
2019-05-09T15:59:47.934Z,98627.38
2019-05-09T16:02:51.809Z,98636.86
2019-05-09T16:05:55.423Z,98630.60
2019-05-09T16:08:59.084Z,98631.96
2019-05-09T16:12:07.615Z,98628.53
2019-05-09T16:15:08.582Z,98627.64
2019-05-09T16:18:12.204Z,98625.84
2019-05-09T16:21:15.867Z,98622.02
2019-05-09T16:24:19.526Z,98629.05
2019-05-09T16:27:23.188Z,98632.47
2019-05-09T16:30:27.535Z,98628.16
2019-05-09T16:33:31.282Z,98635.27
2019-05-09T16:36:34.968Z,98640.89
2019-05-09T16:39:38.911Z,98639.90
2019-05-09T16:42:42.542Z,98644.08
2019-05-09T16:45:47.685Z,98647.47
2019-05-09T16:48:51.409Z,98644.78
2019-05-09T16:51:58.217Z,98653.98
2019-05-09T16:55:03.514Z,98655.70
2019-05-09T16:58:14.881Z,98655.73
2019-05-09T17:01:18.594Z,98657.13
2019-05-09T17:04:21.153Z,98657.64
2019-05-09T17:07:35.206Z,98656.84
2019-05-09T17:10:51.363Z,98654.59
2019-05-09T17:13:54.985Z,98659.00
2019-05-09T17:16:59.979Z,98660.95
2019-05-09T17:20:04.857Z,98662.08
2019-05-09T17:23:15.624Z,98655.48
2019-05-09T17:26:19.370Z,98662.34
2019-05-09T17:30:13.589Z,98661.25
2019-05-09T17:32:30.514Z,98664.52
2019-05-09T17:35:34.421Z,98667.28
2019-05-09T17:38:40.208Z,98676.36
2019-05-09T17:41:45.421Z,98671.97
2019-05-09T17:44:49.105Z,98673.63
2019-05-09T17:47:54.235Z,98677.19
2019-05-09T17:50:58.098Z,98673.63
2019-05-09T17:54:01.728Z,98680.50
2019-05-09T17:57:07.997Z,98686.53
2019-05-09T18:00:21.115Z,98688.73
2019-05-09T18:03:22.284Z,98686.26
2019-05-09T18:06:28.312Z,98695.33
2019-05-09T18:09:31.525Z,98695.32
2019-05-09T18:12:35.153Z,98693.10
2019-05-09T18:15:38.970Z,98688.98
2019-05-09T18:18:48.089Z,98691.21
2019-05-09T18:21:52.343Z,98694.22
2019-05-09T18:24:57.728Z,98695.61
2019-05-09T18:28:01.455Z,98698.63
2019-05-09T18:31:09.436Z,98701.11
2019-05-09T18:38:02.551Z,98706.59
2019-05-09T18:41:10.153Z,98704.39
2019-05-09T18:44:15.267Z,98714.77
2019-05-09T18:47:18.867Z,98714.23
2019-05-09T18:50:22.715Z,98716.72
2019-05-09T18:53:45.788Z,98722.20
2019-05-09T18:56:49.084Z,98723.30
2019-05-09T18:59:48.341Z,98727.93
2019-05-09T19:03:05.186Z,98731.73
2019-05-09T19:06:25.737Z,98739.62
2019-05-09T19:09:30.940Z,98741.61
2019-05-09T19:12:37.844Z,98746.98
2019-05-09T19:16:00.682Z,98749.94
2019-05-09T19:19:06.087Z,98754.27
2019-05-09T19:22:21.906Z,98758.33
2019-05-09T19:25:16.711Z,98758.57
2019-05-09T19:28:23.846Z,98760.20
2019-05-09T19:31:25.879Z,98758.54
2019-05-09T19:38:29.485Z,98768.92
2019-05-09T19:41:36.055Z,98766.47
2019-05-09T19:44:48.922Z,98772.53
2019-05-09T19:47:52.914Z,98773.30
2019-05-09T19:50:56.529Z,98780.96
2019-05-09T19:54:00.115Z,98788.56
2019-05-09T19:57:07.732Z,98794.27
2019-05-09T20:00:21.459Z,98795.28
2019-05-09T20:03:45.836Z,98797.72
2019-05-09T20:06:50.501Z,98793.12
2019-05-09T20:10:00.726Z,98798.86
2019-05-09T20:13:17.572Z,98804.15
2019-05-09T20:16:27.216Z,98803.59
2019-05-09T20:19:36.235Z,98806.52
2019-05-09T20:22:52.374Z,98811.70
2019-05-09T20:25:57.091Z,98801.89
2019-05-09T20:29:18.430Z,98811.87
2019-05-09T20:32:21.983Z,98817.34
2019-05-09T20:35:34.514Z,98818.45
2019-05-09T20:38:41.455Z,98827.18
2019-05-09T20:41:45.239Z,98828.95
2019-05-09T20:44:52.412Z,98827.29
2019-05-09T20:47:56.402Z,98829.82
2019-05-09T20:51:00.223Z,98806.66
2019-05-09T20:54:20.025Z,98836.16
2019-05-09T20:57:14.189Z,98842.95
2019-05-09T21:00:17.978Z,98844.05
2019-05-09T21:03:24.466Z,98830.69
2019-05-09T21:06:30.048Z,98848.02
2019-05-09T21:09:46.235Z,98848.02
2019-05-09T21:12:51.811Z,98856.83
2019-05-09T21:19:06.907Z,98854.92
2019-05-09T21:22:42.257Z,98860.14
2019-05-09T21:25:23.106Z,98859.11
2019-05-09T21:28:26.938Z,98863.22
2019-05-09T21:31:33.364Z,98864.33
2019-05-09T21:34:49.474Z,98860.73
2019-05-09T21:37:53.111Z,98860.03
2019-05-09T21:40:58.313Z,98863.09
2019-05-09T21:44:01.832Z,98861.41
2019-05-09T21:47:05.363Z,98865.87
2019-05-09T21:50:09.253Z,98869.02
2019-05-09T21:53:12.854Z,98875.59
2019-05-09T21:56:16.558Z,98879.23
2019-05-09T21:59:20.096Z,98883.38
2019-05-09T22:02:24.204Z,98889.34
2019-05-09T22:05:27.755Z,98892.72
2019-05-09T22:08:31.293Z,98892.69
2019-05-09T22:11:34.842Z,98901.02
2019-05-09T22:14:38.467Z,98906.28
2019-05-09T22:17:44.022Z,98905.39
2019-05-09T22:20:47.579Z,98910.47
2019-05-09T22:24:00.368Z,98910.41
2019-05-09T22:27:03.758Z,98911.89
2019-05-09T22:30:11.493Z,98923.06
2019-05-09T22:33:20.204Z,98917.92
2019-05-09T22:36:25.303Z,98915.66
2019-05-09T22:39:28.842Z,98919.13
2019-05-09T22:42:32.390Z,98921.30
2019-05-09T22:45:36.098Z,98922.89
2019-05-09T22:48:39.696Z,98925.63
2019-05-09T22:51:47.942Z,98922.41
2019-05-09T22:55:04.149Z,98929.66
2019-05-09T22:58:07.693Z,98904.75
2019-05-09T23:01:12.916Z,98932.88
2019-05-09T23:04:18.068Z,98931.81
2019-05-09T23:07:23.771Z,98934.12
2019-05-09T23:10:27.606Z,98937.91
2019-05-09T23:13:32.810Z,98937.25
2019-05-09T23:16:37.986Z,98941.65
2019-05-09T23:19:41.546Z,98945.88
2019-05-09T23:22:45.112Z,98949.55
2019-05-09T23:25:48.661Z,98945.52
2019-05-09T23:28:52.287Z,98942.09
2019-05-09T23:32:00.180Z,98945.55
2019-05-09T23:35:04.014Z,98946.77
2019-05-09T23:38:08.606Z,98946.84
2019-05-09T23:41:12.169Z,98951.09
2019-05-09T23:44:15.722Z,98950.03
2019-05-09T23:47:19.287Z,98954.36
2019-05-09T23:50:22.849Z,98952.76
2019-05-09T23:53:32.593Z,98962.32
2019-05-09T23:56:53.863Z,98960.23
